Time;durP1;ratioP1;P1;durP2;ratioP2;P2;SDS_P1;SDS_P2;PMS_P1;PMS_P2;Temp;Humidity;BMP_temperature;BMP_pressure;BME280_temperature;BME280_humidity;BME280_pressure;Samples;Min_cycle;Max_cycle;Signal;HPM_P1;HPM_P2
2020/12/03 00:02:00;;;;;;;13.20;8.17;;;-0.30;99.90;;;;;;5072853;28;20690;-79
2020/12/03 00:04:26;;;;;;;12.00;7.47;;;-0.40;99.90;;;;;;5084780;28;20189;-79
2020/12/03 00:07:01;;;;;;;11.20;8.90;;;-0.40;99.90;;;;;;5085956;28;20189;-79
2020/12/03 00:09:26;;;;;;;11.30;6.37;;;-0.40;99.90;;;;;;5093832;28;20212;-80
2020/12/03 00:11:58;;;;;;;12.40;7.73;;;-0.40;99.90;;;;;;5085155;28;20283;-79
2020/12/03 00:14:24;;;;;;;12.03;7.60;;;-0.30;99.90;;;;;;5094947;28;20200;-81
2020/12/03 00:16:52;;;;;;;10.63;7.77;;;-0.30;99.90;;;;;;5075376;28;20180;-80
2020/12/03 00:19:22;;;;;;;10.13;6.67;;;-0.20;99.90;;;;;;5076089;28;20197;-81
2020/12/03 00:21:53;;;;;;;8.83;5.93;;;-0.30;99.90;;;;;;5077197;28;20184;-79
2020/12/03 00:24:30;;;;;;;12.87;8.80;;;-0.20;99.90;;;;;;5085576;28;20227;-79
2020/12/03 00:26:56;;;;;;;10.80;7.53;;;-0.30;99.90;;;;;;5087204;28;20181;-79
2020/12/03 00:29:23;;;;;;;11.80;7.47;;;-0.30;99.90;;;;;;5093119;28;20225;-79
2020/12/03 00:31:49;;;;;;;11.63;7.93;;;-0.30;99.90;;;;;;5086330;28;20185;-79
2020/12/03 00:34:16;;;;;;;10.27;6.70;;;-0.30;99.90;;;;;;5077796;28;20648;-79
2020/12/03 00:36:42;;;;;;;9.50;7.03;;;-0.30;99.90;;;;;;5087209;28;20204;-80
2020/12/03 00:39:11;;;;;;;9.97;6.40;;;-0.30;99.90;;;;;;5087053;28;20219;-79
2020/12/03 00:41:37;;;;;;;10.40;6.60;;;-0.30;99.90;;;;;;5075590;28;20176;-81
2020/12/03 00:44:05;;;;;;;8.70;6.17;;;-0.30;99.90;;;;;;5076673;28;20192;-79
2020/12/03 00:46:32;;;;;;;7.93;6.13;;;-0.30;99.90;;;;;;5076249;28;20222;-79
2020/12/03 00:48:58;;;;;;;9.93;6.07;;;-0.30;99.90;;;;;;5085391;28;20982;-79
2020/12/03 00:51:24;;;;;;;9.53;7.33;;;-0.30;99.90;;;;;;5074791;28;20199;-79
2020/12/03 00:53:51;;;;;;;12.60;7.93;;;-0.30;99.90;;;;;;5076750;28;20217;-78
2020/12/03 00:56:20;;;;;;;11.63;7.27;;;-0.20;99.90;;;;;;5076192;28;20181;-80
2020/12/03 00:58:47;;;;;;;10.10;6.50;;;-0.20;99.90;;;;;;5087294;28;20277;-80
2020/12/03 01:01:14;;;;;;;8.73;6.13;;;-0.20;99.90;;;;;;5087089;28;20577;-79
2020/12/03 01:03:40;;;;;;;8.57;6.47;;;-0.10;99.90;;;;;;5086824;28;20233;-79
2020/12/03 01:06:06;;;;;;;7.83;5.30;;;-0.10;99.90;;;;;;5086441;28;20247;-79
2020/12/03 01:08:32;;;;;;;7.43;5.43;;;-0.10;99.90;;;;;;5086556;28;20209;-79
2020/12/03 01:10:57;;;;;;;9.13;5.57;;;-0.10;99.90;;;;;;5076387;28;20300;-79
2020/12/03 01:13:24;;;;;;;10.50;6.73;;;-0.10;99.90;;;;;;5086576;28;20212;-81
2020/12/03 01:15:50;;;;;;;7.50;5.90;;;0.00;99.90;;;;;;5075722;28;20206;-80
2020/12/03 01:18:16;;;;;;;9.33;6.50;;;0.00;99.90;;;;;;5068295;28;20436;-80
2020/12/03 01:20:41;;;;;;;10.00;5.77;;;-0.10;99.90;;;;;;5083315;28;20195;-79
2020/12/03 01:23:07;;;;;;;7.73;5.27;;;-0.10;99.90;;;;;;5073988;28;20184;-81
2020/12/03 01:25:35;;;;;;;11.33;6.40;;;-0.10;99.90;;;;;;5068332;28;20354;-81
2020/12/03 01:28:01;;;;;;;6.50;5.50;;;-0.10;99.90;;;;;;5074429;28;20208;-79
2020/12/03 01:30:26;;;;;;;10.77;5.23;;;-0.10;99.90;;;;;;5087514;28;20192;-79
2020/12/03 01:32:52;;;;;;;12.33;7.40;;;-0.10;99.90;;;;;;5087129;28;20192;-82
2020/12/03 01:35:18;;;;;;;10.33;7.67;;;0.00;99.90;;;;;;5075071;28;20246;-79
2020/12/03 01:37:50;;;;;;;9.27;6.40;;;0.00;99.90;;;;;;5068184;28;20753;-79
2020/12/03 01:40:23;;;;;;;8.17;6.07;;;0.10;99.90;;;;;;5076621;28;20208;-80
2020/12/03 01:42:49;;;;;;;10.17;6.40;;;0.10;99.90;;;;;;5076880;28;20196;-82
2020/12/03 01:45:48;;;;;;;6.77;5.10;;;0.20;99.90;;;;;;5079691;28;20555;-80
2020/12/03 01:48:15;;;;;;;8.10;5.20;;;0.20;99.90;;;;;;5089926;28;20757;-82
2020/12/03 01:50:41;;;;;;;9.87;6.00;;;0.10;99.90;;;;;;5077580;28;20193;-78
2020/12/03 01:53:07;;;;;;;10.13;5.97;;;0.20;99.90;;;;;;5080668;28;20211;-79
2020/12/03 01:55:32;;;;;;;8.87;6.67;;;0.20;99.90;;;;;;5090203;28;21172;-78
2020/12/03 01:58:03;;;;;;;10.03;6.13;;;0.20;99.90;;;;;;5078824;28;20291;-82
2020/12/03 02:00:29;;;;;;;8.53;5.00;;;0.20;99.90;;;;;;5088816;28;20177;-78
2020/12/03 02:02:55;;;;;;;8.83;5.93;;;0.20;99.90;;;;;;5090079;28;20195;-81
2020/12/03 02:05:25;;;;;;;9.13;6.17;;;0.30;99.90;;;;;;5080009;28;20185;-79
2020/12/03 02:07:51;;;;;;;11.87;6.40;;;0.20;99.90;;;;;;5090497;28;20271;-79
2020/12/03 02:10:19;;;;;;;9.20;6.70;;;0.20;99.90;;;;;;5071886;28;20280;-79
2020/12/03 02:12:45;;;;;;;7.10;5.20;;;0.20;99.90;;;;;;5077748;28;20192;-80
2020/12/03 02:15:11;;;;;;;7.33;4.97;;;0.20;99.90;;;;;;5089692;28;20200;-79
2020/12/03 02:17:38;;;;;;;6.73;4.90;;;0.20;99.90;;;;;;5089645;28;20192;-79
2020/12/03 02:20:08;;;;;;;8.27;5.67;;;0.20;99.90;;;;;;5077863;28;20192;-79
2020/12/03 02:22:34;;;;;;;8.03;5.60;;;0.20;99.90;;;;;;5078925;28;20250;-80
2020/12/03 02:24:59;;;;;;;8.60;5.50;;;0.20;99.90;;;;;;5078562;28;20184;-80
2020/12/03 02:27:26;;;;;;;7.83;5.37;;;0.30;99.90;;;;;;5078127;28;20199;-79
2020/12/03 02:29:52;;;;;;;12.20;7.40;;;0.30;99.90;;;;;;5089867;28;20274;-80
2020/12/03 02:32:19;;;;;;;9.63;6.10;;;0.20;99.90;;;;;;5089051;28;20201;-79
2020/12/03 02:34:45;;;;;;;9.57;6.63;;;0.20;99.90;;;;;;5089504;28;20251;-80
2020/12/03 02:37:12;;;;;;;7.70;5.13;;;0.20;99.90;;;;;;5088381;28;20184;-80
2020/12/03 02:39:38;;;;;;;6.70;5.40;;;0.20;99.90;;;;;;5088101;28;20280;-79
2020/12/03 02:42:09;;;;;;;7.37;5.00;;;0.20;99.90;;;;;;5087182;28;20220;-79
2020/12/03 02:44:40;;;;;;;8.63;6.53;;;0.20;99.90;;;;;;5079500;28;20192;-80
2020/12/03 02:47:05;;;;;;;8.60;5.83;;;0.20;99.90;;;;;;5076975;28;20188;-77
2020/12/03 02:49:31;;;;;;;6.07;4.43;;;0.20;99.90;;;;;;5078332;28;20258;-79
2020/12/03 02:51:57;;;;;;;8.83;5.83;;;0.20;99.90;;;;;;5088092;28;20265;-80
2020/12/03 02:54:22;;;;;;;8.33;5.37;;;0.20;99.90;;;;;;5076791;28;20704;-80
2020/12/03 02:56:48;;;;;;;8.43;5.13;;;0.10;99.90;;;;;;5087722;28;20181;-79
2020/12/03 02:59:13;;;;;;;8.87;7.27;;;0.20;99.90;;;;;;5089358;28;20688;-80
2020/12/03 03:01:39;;;;;;;8.50;5.53;;;0.20;99.90;;;;;;5088593;28;20195;-78
2020/12/03 03:04:05;;;;;;;10.87;6.17;;;0.20;99.90;;;;;;5077534;28;20195;-78
2020/12/03 03:06:35;;;;;;;8.10;6.20;;;0.20;99.90;;;;;;5077563;28;20531;-78
2020/12/03 03:09:02;;;;;;;5.67;3.90;;;0.30;99.90;;;;;;5088261;28;20262;-79
2020/12/03 03:11:27;;;;;;;5.90;5.13;;;0.30;99.90;;;;;;5088071;28;20276;-79
2020/12/03 03:13:53;;;;;;;9.40;6.83;;;0.30;99.90;;;;;;5069469;28;20284;-80
2020/12/03 03:16:19;;;;;;;9.20;5.80;;;0.30;99.90;;;;;;5069799;28;20180;-78
2020/12/03 03:18:44;;;;;;;6.53;5.03;;;0.20;99.90;;;;;;5069845;28;20324;-80
2020/12/03 03:21:10;;;;;;;8.13;5.23;;;0.20;99.90;;;;;;5087815;28;20189;-78
2020/12/03 03:23:36;;;;;;;8.67;5.03;;;0.30;99.90;;;;;;5076845;28;20181;-79
2020/12/03 03:26:02;;;;;;;6.17;4.40;;;0.30;99.90;;;;;;5077380;28;20369;-79
2020/12/03 03:28:27;;;;;;;9.17;5.43;;;0.30;99.90;;;;;;5076292;28;20201;-80
2020/12/03 03:30:53;;;;;;;8.10;4.93;;;0.30;99.90;;;;;;5087376;28;20188;-80
2020/12/03 03:33:19;;;;;;;7.77;4.70;;;0.30;99.90;;;;;;5087875;28;20185;-79
2020/12/03 03:35:44;;;;;;;5.90;4.20;;;0.30;99.90;;;;;;5086229;28;20195;-79
2020/12/03 03:38:10;;;;;;;7.87;5.00;;;0.30;99.90;;;;;;5076145;28;20292;-80
2020/12/03 03:40:36;;;;;;;8.33;5.47;;;0.30;99.90;;;;;;5075475;28;20986;-79
2020/12/03 03:43:01;;;;;;;7.37;4.73;;;0.40;99.90;;;;;;5086337;28;20685;-78
2020/12/03 03:45:27;;;;;;;6.57;5.47;;;0.40;99.90;;;;;;5075574;28;20189;-79
2020/12/03 03:47:53;;;;;;;7.30;5.20;;;0.40;99.90;;;;;;5069006;28;20220;-78
2020/12/03 03:50:18;;;;;;;9.40;5.80;;;0.40;99.90;;;;;;5069128;28;20185;-79
2020/12/03 03:52:46;;;;;;;9.77;7.13;;;0.40;99.90;;;;;;5068611;28;20208;-78
2020/12/03 03:55:12;;;;;;;8.50;5.50;;;0.40;99.90;;;;;;5075168;28;20240;-78
2020/12/03 03:57:38;;;;;;;7.87;4.67;;;0.40;99.90;;;;;;5068553;28;20227;-79
2020/12/03 04:00:05;;;;;;;8.70;5.20;;;0.40;99.90;;;;;;5077356;28;20199;-78
2020/12/03 04:02:30;;;;;;;7.23;4.83;;;0.40;99.90;;;;;;5087102;28;20549;-79
2020/12/03 04:04:56;;;;;;;9.47;5.90;;;0.40;99.90;;;;;;5075163;28;20215;-80
2020/12/03 04:07:21;;;;;;;6.53;5.60;;;0.40;99.90;;;;;;5086596;28;20181;-79
2020/12/03 04:09:47;;;;;;;8.60;4.77;;;0.40;99.90;;;;;;5068232;28;20209;-79
2020/12/03 04:12:13;;;;;;;9.43;6.57;;;0.40;99.90;;;;;;5075280;28;20192;-79
2020/12/03 04:14:39;;;;;;;8.23;5.47;;;0.30;99.90;;;;;;5086167;28;20204;-80
2020/12/03 04:17:05;;;;;;;7.80;5.10;;;0.30;99.90;;;;;;5085847;28;20347;-78
2020/12/03 04:19:30;;;;;;;7.67;5.33;;;0.30;99.90;;;;;;5075778;28;20857;-80
2020/12/03 04:21:56;;;;;;;7.73;4.63;;;0.30;99.90;;;;;;5075188;28;20195;-79
2020/12/03 04:24:22;;;;;;;7.53;6.00;;;0.30;99.90;;;;;;5076059;28;20192;-80
2020/12/03 04:26:47;;;;;;;8.80;5.57;;;0.40;99.90;;;;;;5067798;28;20196;-79
2020/12/03 04:29:14;;;;;;;8.97;5.30;;;0.50;99.90;;;;;;5074042;28;20250;-81
2020/12/03 04:31:41;;;;;;;9.77;6.70;;;0.50;99.90;;;;;;5074538;28;20852;-80
2020/12/03 04:34:07;;;;;;;6.63;5.00;;;0.40;99.90;;;;;;5075134;28;20222;-78
2020/12/03 04:36:33;;;;;;;7.67;5.03;;;0.40;99.90;;;;;;5075971;28;20189;-80
2020/12/03 04:38:58;;;;;;;9.17;5.47;;;0.40;99.90;;;;;;5075951;28;20248;-79
2020/12/03 04:41:24;;;;;;;6.83;5.40;;;0.40;99.90;;;;;;5074753;28;20200;-78
2020/12/03 04:44:03;;;;;;;8.63;5.30;;;0.40;99.90;;;;;;5075382;28;20188;-79
2020/12/03 04:46:35;;;;;;;6.37;5.07;;;0.40;99.90;;;;;;5086208;28;20177;-79
2020/12/03 04:49:24;;;;;;;6.27;4.40;;;0.40;99.90;;;;;;5086461;28;20760;-79
2020/12/03 04:51:57;;;;;;;10.10;5.97;;;0.50;99.90;;;;;;5086564;28;20267;-79
2020/12/03 04:54:40;;;;;;;10.27;5.93;;;0.40;99.90;;;;;;5086508;28;20216;-80
2020/12/03 04:57:25;;;;;;;6.33;4.40;;;0.40;99.90;;;;;;5085423;28;20186;-82
2020/12/03 04:59:55;;;;;;;9.63;6.73;;;0.40;99.90;;;;;;5086379;28;20580;-79
2020/12/03 05:02:51;;;;;;;8.37;5.87;;;0.40;99.90;;;;;;5087305;28;20176;-80
2020/12/03 05:05:35;;;;;;;7.00;5.17;;;0.50;99.90;;;;;;5048008;28;20200;-80
2020/12/03 05:08:07;;;;;;;7.63;6.23;;;0.40;99.90;;;;;;5086000;28;20200;-78
2020/12/03 05:10:44;;;;;;;7.90;4.73;;;0.40;99.90;;;;;;5084475;28;20181;-77
2020/12/03 05:13:26;;;;;;;9.87;6.73;;;0.40;99.90;;;;;;5083585;28;20173;-79
2020/12/03 05:15:57;;;;;;;6.30;4.53;;;0.40;99.90;;;;;;5073934;28;20271;-77
2020/12/03 05:18:43;;;;;;;10.73;5.13;;;0.30;99.90;;;;;;5073997;28;20215;-78
2020/12/03 05:21:17;;;;;;;7.33;4.93;;;0.40;99.90;;;;;;5082955;28;20177;-78
2020/12/03 05:23:43;;;;;;;7.47;5.60;;;0.30;99.90;;;;;;5074442;28;20177;-79
2020/12/03 05:26:18;;;;;;;9.43;5.83;;;0.30;99.90;;;;;;5085375;28;20272;-78
2020/12/03 05:29:03;;;;;;;8.77;5.50;;;0.30;99.90;;;;;;5074036;28;20196;-79
2020/12/03 05:31:32;;;;;;;7.70;5.50;;;0.30;99.90;;;;;;5074080;28;20198;-78
2020/12/03 05:34:09;;;;;;;7.97;5.63;;;0.30;99.90;;;;;;5075030;28;20697;-78
2020/12/03 05:36:39;;;;;;;7.60;6.33;;;0.30;99.90;;;;;;5074725;28;20188;-78
2020/12/03 05:39:09;;;;;;;6.40;4.90;;;0.30;99.90;;;;;;5084754;28;20288;-78
2020/12/03 05:41:44;;;;;;;7.83;6.13;;;0.30;99.90;;;;;;5075897;28;20173;-78
2020/12/03 05:44:32;;;;;;;6.47;5.30;;;0.30;99.90;;;;;;5074912;28;20211;-78
2020/12/03 05:46:58;;;;;;;9.70;5.60;;;0.40;99.90;;;;;;5084311;28;20230;-79
2020/12/03 05:49:26;;;;;;;6.57;5.10;;;0.40;99.90;;;;;;5075090;28;20570;-77
2020/12/03 05:52:13;;;;;;;7.83;5.47;;;0.40;99.90;;;;;;5073918;28;20191;-79
2020/12/03 05:54:38;;;;;;;7.03;5.20;;;0.50;99.90;;;;;;5084327;28;20270;-79
2020/12/03 05:57:04;;;;;;;5.60;3.70;;;0.50;99.90;;;;;;5071321;28;20197;-78
2020/12/03 05:59:29;;;;;;;8.43;6.70;;;0.40;99.90;;;;;;5072690;28;20232;-79
2020/12/03 06:02:15;;;;;;;7.23;5.17;;;0.40;99.90;;;;;;5073445;28;20275;-77
2020/12/03 06:04:55;;;;;;;9.00;5.97;;;0.40;99.90;;;;;;5074068;28;20645;-78
2020/12/03 06:08:01;;;;;;;6.87;4.70;;;0.40;99.90;;;;;;5085281;28;20185;-79
2020/12/03 06:11:09;;;;;;;4.97;4.20;;;0.40;99.90;;;;;;5063561;28;20200;-79
2020/12/03 06:14:01;;;;;;;5.97;4.03;;;0.50;99.90;;;;;;5072651;28;20272;-79
2020/12/03 06:16:36;;;;;;;5.87;4.10;;;0.50;99.90;;;;;;5085296;28;20706;-79
2020/12/03 06:19:30;;;;;;;8.23;5.13;;;0.50;99.90;;;;;;5085407;28;20416;-77
2020/12/03 06:22:12;;;;;;;9.83;5.80;;;0.60;99.90;;;;;;5083410;28;20188;-78
2020/12/03 06:25:16;;;;;;;4.60;3.57;;;0.60;99.90;;;;;;5085523;28;20184;-78
2020/12/03 06:28:03;;;;;;;6.13;3.37;;;0.60;99.90;;;;;;5066475;28;20207;-79
2020/12/03 06:30:39;;;;;;;7.70;4.77;;;0.50;99.90;;;;;;5089036;28;20263;-78
2020/12/03 06:33:14;;;;;;;6.93;4.87;;;0.60;99.90;;;;;;5089055;28;20290;-77
2020/12/03 06:36:03;;;;;;;7.23;4.57;;;0.60;99.90;;;;;;5078760;28;20711;-79
2020/12/03 06:38:38;;;;;;;5.50;3.67;;;0.60;99.90;;;;;;5088148;28;20249;-79
2020/12/03 06:41:41;;;;;;;6.20;4.60;;;0.60;99.90;;;;;;5088472;28;20199;-79
2020/12/03 06:44:09;;;;;;;6.10;4.53;;;0.60;99.90;;;;;;5089183;28;21162;-78
2020/12/03 06:47:00;;;;;;;4.97;3.57;;;0.60;99.90;;;;;;5078950;28;20173;-80
2020/12/03 06:49:56;;;;;;;6.10;4.00;;;0.70;99.90;;;;;;5088516;28;20216;-77
2020/12/03 06:53:00;;;;;;;4.27;3.43;;;0.70;99.90;;;;;;5069880;28;20177;-78
2020/12/03 06:55:31;;;;;;;6.77;3.57;;;0.70;99.90;;;;;;5077732;28;20703;-78
2020/12/03 06:58:15;;;;;;;4.73;3.13;;;0.70;99.90;;;;;;5088478;28;20208;-80
2020/12/03 07:01:08;;;;;;;4.00;2.93;;;0.70;99.90;;;;;;5088331;28;20172;-78
2020/12/03 07:03:52;;;;;;;5.83;4.43;;;0.70;99.90;;;;;;5087078;28;20726;-79
2020/12/03 07:06:39;;;;;;;3.13;2.80;;;0.70;99.90;;;;;;5095691;28;20681;-80
2020/12/03 07:09:28;;;;;;;4.77;3.00;;;0.70;99.90;;;;;;5076748;28;20204;-79
2020/12/03 07:12:08;;;;;;;4.73;2.80;;;0.70;99.90;;;;;;5086833;28;20193;-78
2020/12/03 07:15:24;;;;;;;5.27;3.67;;;0.70;99.90;;;;;;5096962;28;20228;-81
2020/12/03 07:18:27;;;;;;;5.40;3.43;;;0.80;99.90;;;;;;5087493;28;20207;-79
2020/12/03 07:21:07;;;;;;;3.80;3.00;;;0.80;99.90;;;;;;5088615;28;20285;-78
2020/12/03 07:23:42;;;;;;;8.90;6.53;;;0.80;99.90;;;;;;5079455;28;20177;-79
2020/12/03 07:26:23;;;;;;;15.10;9.97;;;0.80;99.90;;;;;;5087394;28;21066;-78
2020/12/03 07:28:52;;;;;;;19.00;11.30;;;0.70;99.90;;;;;;5087926;28;20196;-79
2020/12/03 07:31:36;;;;;;;14.03;8.93;;;0.80;99.90;;;;;;5076908;28;20653;-78
2020/12/03 07:34:30;;;;;;;8.23;5.77;;;0.80;99.90;;;;;;5087588;28;20203;-78
2020/12/03 07:37:08;;;;;;;6.00;3.13;;;0.80;99.90;;;;;;5086767;28;20196;-79
2020/12/03 07:39:35;;;;;;;5.00;4.30;;;0.80;99.90;;;;;;5086864;28;20199;-78
2020/12/03 07:42:11;;;;;;;7.80;4.80;;;0.80;99.90;;;;;;5076629;28;20185;-78
2020/12/03 07:44:56;;;;;;;6.93;4.23;;;0.80;99.90;;;;;;5087327;28;20210;-78
2020/12/03 07:47:31;;;;;;;4.60;2.97;;;0.90;99.90;;;;;;5087788;28;20180;-79
2020/12/03 07:49:59;;;;;;;6.07;3.70;;;1.00;99.90;;;;;;5075831;28;20583;-79
2020/12/03 07:52:37;;;;;;;3.57;2.87;;;1.00;99.90;;;;;;5076467;28;20279;-79
2020/12/03 07:55:21;;;;;;;4.20;2.73;;;1.00;99.90;;;;;;5086300;28;20213;-77
2020/12/03 07:57:58;;;;;;;6.03;3.77;;;1.10;99.90;;;;;;5075232;28;20206;-77
2020/12/03 08:00:26;;;;;;;3.33;2.40;;;1.20;99.90;;;;;;5087650;28;20165;-78
2020/12/03 08:02:54;;;;;;;4.00;2.80;;;1.20;99.90;;;;;;5076252;28;20189;-78
2020/12/03 08:05:57;;;;;;;5.23;4.47;;;1.20;99.90;;;;;;5087068;28;20734;-78
2020/12/03 08:08:33;;;;;;;4.87;2.83;;;1.20;99.90;;;;;;5087334;28;20204;-79
2020/12/03 08:10:58;;;;;;;7.30;3.50;;;1.30;99.90;;;;;;5087000;28;20195;-80
2020/12/03 08:13:40;;;;;;;4.57;3.90;;;1.30;99.90;;;;;;5085586;28;20177;-79
2020/12/03 08:16:11;;;;;;;3.83;2.97;;;1.30;99.90;;;;;;5086989;28;20181;-80
2020/12/03 08:18:57;;;;;;;4.60;3.63;;;1.40;99.90;;;;;;5087180;28;20253;-80
2020/12/03 08:21:37;;;;;;;4.87;3.87;;;1.30;99.90;;;;;;5076424;28;20603;-79
2020/12/03 08:24:03;;;;;;;6.03;3.87;;;1.30;99.90;;;;;;5086364;28;20272;-79
2020/12/03 08:26:29;;;;;;;5.60;4.37;;;1.40;99.90;;;;;;5075742;28;20653;-79
2020/12/03 08:28:55;;;;;;;6.17;3.77;;;1.40;99.90;;;;;;5086990;28;20212;-80
2020/12/03 08:31:21;;;;;;;4.80;3.40;;;1.40;99.90;;;;;;5087090;28;20269;-80
2020/12/03 08:33:53;;;;;;;3.87;3.00;;;1.40;99.90;;;;;;5086911;28;20254;-79
2020/12/03 08:36:21;;;;;;;5.07;3.53;;;1.50;99.90;;;;;;5092977;28;20185;-79
2020/12/03 08:38:53;;;;;;;4.63;3.33;;;1.50;99.90;;;;;;5086948;28;20201;-80
2020/12/03 08:41:21;;;;;;;5.00;3.73;;;1.50;99.90;;;;;;5086608;28;20191;-80
2020/12/03 08:43:52;;;;;;;5.03;4.53;;;1.50;99.90;;;;;;5077046;28;20188;-79
2020/12/03 08:46:26;;;;;;;6.07;5.27;;;1.60;99.90;;;;;;5086177;28;20892;-79
2020/12/03 08:48:51;;;;;;;7.17;4.53;;;1.50;99.90;;;;;;5075789;28;20193;-79
2020/12/03 08:51:18;;;;;;;4.90;3.03;;;1.50;99.90;;;;;;5075513;28;20593;-79
2020/12/03 08:53:49;;;;;;;4.90;3.77;;;1.50;99.90;;;;;;5086917;28;20919;-81
2020/12/03 08:56:18;;;;;;;6.17;4.00;;;1.50;99.90;;;;;;5084706;28;20177;-79
2020/12/03 08:58:57;;;;;;;4.43;3.73;;;1.50;99.90;;;;;;5074254;28;20234;-78
2020/12/03 09:01:25;;;;;;;5.60;3.73;;;1.60;99.90;;;;;;5084669;28;20646;-78
2020/12/03 09:03:52;;;;;;;4.77;3.27;;;1.70;99.90;;;;;;5071824;28;20180;-79
2020/12/03 09:06:18;;;;;;;5.90;3.40;;;1.60;99.90;;;;;;5075776;28;20189;-79
2020/12/03 09:08:44;;;;;;;5.33;3.73;;;1.50;99.90;;;;;;5073031;28;20216;-80
2020/12/03 09:11:10;;;;;;;5.13;3.53;;;1.50;99.90;;;;;;5085177;28;20266;-80
2020/12/03 09:13:35;;;;;;;5.00;3.30;;;1.50;99.90;;;;;;5085588;28;20184;-79
2020/12/03 09:16:03;;;;;;;4.43;3.20;;;1.50;99.90;;;;;;5084831;28;20219;-79
2020/12/03 09:18:28;;;;;;;4.57;3.10;;;1.50;99.90;;;;;;5085311;28;20201;-78
2020/12/03 09:20:54;;;;;;;6.73;3.93;;;1.50;99.90;;;;;;5088262;28;20184;-79
2020/12/03 09:23:29;;;;;;;5.80;4.30;;;1.50;99.90;;;;;;5078494;28;20271;-80
2020/12/03 09:25:56;;;;;;;3.30;2.93;;;1.50;99.90;;;;;;5073774;28;20744;-80
2020/12/03 09:28:23;;;;;;;5.33;3.40;;;1.60;99.90;;;;;;5084056;28;20265;-78
2020/12/03 09:30:50;;;;;;;6.80;4.00;;;1.70;99.90;;;;;;5087547;28;20180;-79
2020/12/03 09:33:19;;;;;;;6.37;3.87;;;1.70;99.90;;;;;;5082776;28;20208;-79
2020/12/03 09:35:49;;;;;;;5.37;3.83;;;1.90;99.90;;;;;;5071160;28;20231;-79
2020/12/03 09:38:16;;;;;;;5.50;3.77;;;1.90;99.90;;;;;;5081622;28;20209;-79
2020/12/03 09:40:49;;;;;;;5.60;3.80;;;2.00;99.90;;;;;;5081478;28;20208;-77
2020/12/03 09:43:19;;;;;;;7.83;4.77;;;2.00;99.90;;;;;;5082334;28;20188;-78
2020/12/03 09:45:49;;;;;;;6.67;4.67;;;2.10;99.90;;;;;;5071719;28;20192;-77
2020/12/03 09:48:17;;;;;;;6.40;5.57;;;2.20;99.90;;;;;;5076222;28;20706;-77
2020/12/03 09:50:45;;;;;;;5.43;3.97;;;2.20;99.90;;;;;;5065441;28;20280;-77
2020/12/03 09:53:19;;;;;;;6.13;4.80;;;2.30;99.90;;;;;;5072217;28;20255;-76
2020/12/03 09:55:46;;;;;;;6.60;4.27;;;2.40;99.90;;;;;;5064348;28;20709;-78
2020/12/03 09:58:12;;;;;;;6.87;5.53;;;2.50;99.90;;;;;;5065878;28;20859;-76
2020/12/03 10:00:41;;;;;;;4.77;3.77;;;2.70;99.90;;;;;;5066488;28;20181;-77
2020/12/03 10:03:16;;;;;;;4.57;3.40;;;2.70;99.90;;;;;;5085139;28;20210;-77
2020/12/03 10:05:48;;;;;;;5.17;4.03;;;2.70;99.90;;;;;;5088666;28;20245;-77
2020/12/03 10:08:42;;;;;;;5.33;4.10;;;2.70;99.90;;;;;;5087567;28;20665;-77
2020/12/03 10:11:34;;;;;;;5.37;3.77;;;2.70;99.90;;;;;;5087347;28;20184;-79
2020/12/03 10:14:28;;;;;;;6.53;4.63;;;2.80;99.90;;;;;;5086553;28;20207;-76
2020/12/03 10:17:04;;;;;;;4.90;3.53;;;2.70;99.90;;;;;;5084747;28;20327;-78
2020/12/03 10:19:41;;;;;;;6.70;4.33;;;2.70;99.90;;;;;;5067636;28;20225;-77
2020/12/03 10:22:11;;;;;;;6.00;4.13;;;2.80;99.90;;;;;;5080520;28;20853;-77
2020/12/03 10:24:51;;;;;;;7.87;4.17;;;2.80;99.90;;;;;;5078417;28;20212;-77
2020/12/03 10:27:28;;;;;;;6.63;3.43;;;2.80;99.90;;;;;;5085545;28;20185;-78
2020/12/03 10:30:00;;;;;;;7.93;4.50;;;2.80;99.90;;;;;;5071731;28;20213;-79
2020/12/03 10:32:27;;;;;;;8.10;5.60;;;2.80;99.90;;;;;;5078725;28;20673;-80
2020/12/03 10:34:54;;;;;;;8.10;4.43;;;3.00;99.90;;;;;;5077891;28;20213;-81
2020/12/03 10:37:52;;;;;;;4.47;4.00;;;3.00;99.90;;;;;;5077016;28;20189;-78
2020/12/03 10:40:19;;;;;;;6.23;3.27;;;3.10;99.90;;;;;;5061369;28;20208;-76
2020/12/03 10:42:57;;;;;;;6.47;4.43;;;3.20;99.90;;;;;;5087062;28;20188;-80
2020/12/03 10:45:29;;;;;;;7.37;4.37;;;3.30;99.90;;;;;;5069117;28;20249;-78
2020/12/03 10:48:05;;;;;;;6.07;4.03;;;3.40;99.90;;;;;;5088762;28;20181;-80
2020/12/03 10:50:59;;;;;;;6.00;4.77;;;3.40;99.90;;;;;;5088809;28;20184;-82
2020/12/03 10:53:27;;;;;;;7.33;4.47;;;3.40;99.90;;;;;;5089224;28;20242;-76
2020/12/03 10:56:06;;;;;;;5.80;3.87;;;3.40;99.90;;;;;;5090026;28;20208;-79
2020/12/03 10:58:59;;;;;;;5.73;3.93;;;3.50;99.90;;;;;;5089937;28;20218;-77
2020/12/03 11:01:28;;;;;;;5.00;4.00;;;3.50;99.90;;;;;;5073871;28;20185;-75
2020/12/03 11:03:56;;;;;;;6.60;5.00;;;3.50;99.90;;;;;;5086271;28;20180;-73
2020/12/03 11:06:24;;;;;;;6.50;4.83;;;3.60;99.90;;;;;;5086925;28;20188;-74
2020/12/03 11:08:51;;;;;;;7.43;4.43;;;3.60;99.90;;;;;;5081166;28;20205;-76
2020/12/03 11:11:17;;;;;;;9.47;5.33;;;3.60;99.90;;;;;;5084612;28;20666;-75
2020/12/03 11:13:44;;;;;;;8.60;6.13;;;3.60;99.90;;;;;;5084470;28;20187;-75
2020/12/03 11:16:11;;;;;;;7.53;4.37;;;3.70;99.90;;;;;;5076858;28;20200;-78
2020/12/03 11:18:48;;;;;;;5.57;3.93;;;3.70;99.90;;;;;;5082935;28;20690;-78
2020/12/03 11:21:21;;;;;;;8.43;4.90;;;3.60;99.90;;;;;;5082356;28;20233;-79
2020/12/03 11:24:02;;;;;;;5.37;3.83;;;3.60;99.90;;;;;;5094999;28;20256;-78
2020/12/03 11:26:31;;;;;;;4.90;3.87;;;3.60;99.90;;;;;;5087562;28;20180;-78
2020/12/03 11:29:09;;;;;;;4.77;3.50;;;3.50;99.90;;;;;;5094444;28;20209;-78
2020/12/03 11:31:35;;;;;;;7.40;4.20;;;3.50;99.90;;;;;;5094466;28;20257;-78
2020/12/03 11:34:00;;;;;;;8.60;5.07;;;3.40;99.90;;;;;;5094684;28;20221;-76
2020/12/03 11:36:33;;;;;;;6.33;4.67;;;3.40;99.90;;;;;;5082205;28;20219;-76
2020/12/03 11:39:00;;;;;;;7.27;4.20;;;3.50;99.90;;;;;;5093162;28;20212;-78
2020/12/03 11:49:26;;;;;;;5.93;4.27;;;3.40;99.90;;;;;;5093808;28;20692;-78
2020/12/03 11:51:51;;;;;;;6.73;4.20;;;3.50;99.90;;;;;;5088084;28;20243;-76
2020/12/03 11:54:24;;;;;;;8.70;4.80;;;3.40;99.90;;;;;;5091065;28;20302;-78
2020/12/03 11:56:55;;;;;;;7.57;4.67;;;3.40;99.90;;;;;;5079699;28;20251;-80
2020/12/03 11:59:22;;;;;;;7.50;4.30;;;3.40;99.90;;;;;;5088190;28;20204;-81
2020/12/03 12:02:02;;;;;;;7.50;4.70;;;3.40;99.90;;;;;;5087924;28;20169;-79
2020/12/03 12:04:37;;;;;;;6.03;3.60;;;3.50;99.90;;;;;;5088203;28;20190;-80
2020/12/03 12:07:13;;;;;;;7.83;3.87;;;3.40;99.90;;;;;;5087709;28;20209;-79
2020/12/03 12:10:04;;;;;;;8.73;5.80;;;3.40;99.90;;;;;;5079978;28;20212;-80
2020/12/03 12:12:33;;;;;;;5.87;4.63;;;3.50;99.90;;;;;;5086129;28;20173;-80
2020/12/03 12:14:58;;;;;;;6.20;3.57;;;3.50;99.90;;;;;;5086853;28;20570;-79
2020/12/03 12:17:25;;;;;;;6.40;3.37;;;3.40;99.90;;;;;;5086710;28;20181;-77
2020/12/03 12:19:53;;;;;;;7.53;5.53;;;3.40;99.90;;;;;;5087620;28;20199;-80
2020/12/03 12:22:19;;;;;;;7.37;4.67;;;3.30;99.90;;;;;;5086316;28;20177;-79
2020/12/03 12:24:45;;;;;;;7.80;4.80;;;3.30;99.90;;;;;;5086441;28;20188;-78
2020/12/03 12:27:12;;;;;;;9.73;5.13;;;3.30;99.90;;;;;;5077459;28;20177;-80
2020/12/03 12:29:38;;;;;;;8.20;4.63;;;3.30;99.90;;;;;;5086513;28;20586;-78
2020/12/03 12:32:05;;;;;;;8.07;5.00;;;3.30;99.90;;;;;;5076579;28;20234;-79
2020/12/03 12:34:31;;;;;;;9.83;6.00;;;3.30;99.90;;;;;;5076531;28;20231;-80
2020/12/03 12:36:57;;;;;;;6.83;4.47;;;3.30;99.90;;;;;;5074472;28;20287;-79
2020/12/03 12:39:23;;;;;;;6.70;4.33;;;3.30;99.90;;;;;;5085784;28;20653;-79
2020/12/03 12:42:03;;;;;;;6.13;4.70;;;3.20;99.90;;;;;;5068121;28;20217;-79
2020/12/03 12:44:28;;;;;;;5.97;4.07;;;3.20;99.90;;;;;;5086495;28;20257;-79
2020/12/03 12:46:58;;;;;;;6.53;4.20;;;3.20;99.90;;;;;;5074738;28;20235;-79
2020/12/03 12:49:24;;;;;;;6.50;4.20;;;3.20;99.90;;;;;;5086229;28;20231;-78
2020/12/03 12:51:50;;;;;;;7.83;4.37;;;3.20;99.90;;;;;;5077200;28;20188;-79
2020/12/03 12:54:18;;;;;;;5.83;3.90;;;3.20;99.90;;;;;;5084204;28;20826;-79
2020/12/03 12:56:46;;;;;;;7.43;4.97;;;3.20;99.90;;;;;;5073972;28;20658;-79
2020/12/03 12:59:13;;;;;;;9.80;4.77;;;3.10;99.90;;;;;;5067555;28;20225;-79
2020/12/03 13:01:47;;;;;;;6.50;3.80;;;3.20;99.90;;;;;;5085098;28;21209;-78
2020/12/03 13:04:14;;;;;;;7.20;5.33;;;3.20;99.90;;;;;;5075487;28;20181;-78
2020/12/03 13:06:40;;;;;;;5.83;3.97;;;3.20;99.90;;;;;;5085258;28;20184;-80
2020/12/03 13:09:08;;;;;;;6.40;3.87;;;3.30;99.90;;;;;;5076959;28;20213;-78
2020/12/03 13:11:33;;;;;;;6.63;3.43;;;3.20;99.90;;;;;;5073153;28;20193;-79
2020/12/03 13:14:00;;;;;;;6.63;4.10;;;3.20;99.90;;;;;;5084650;28;20216;-79
2020/12/03 13:16:27;;;;;;;9.20;4.47;;;3.20;99.90;;;;;;5068489;28;20215;-77
2020/12/03 13:18:53;;;;;;;9.10;4.60;;;3.20;99.90;;;;;;5072748;28;20205;-79
2020/12/03 13:21:18;;;;;;;5.43;3.93;;;3.20;99.90;;;;;;5084783;28;20185;-79
2020/12/03 13:23:44;;;;;;;5.07;3.93;;;3.10;99.90;;;;;;5079431;28;20840;-79
2020/12/03 13:26:16;;;;;;;8.53;5.10;;;3.20;99.90;;;;;;5079144;28;20185;-78
2020/12/03 13:28:42;;;;;;;5.73;3.70;;;3.20;99.90;;;;;;5083095;28;20220;-79